Time;durP1;ratioP1;P1;durP2;ratioP2;P2;SDS_P1;SDS_P2;PMS_P1;PMS_P2;Temp;Humidity;BMP_temperature;BMP_pressure;BME280_temperature;BME280_humidity;BME280_pressure;Samples;Min_cycle;Max_cycle;Signal;HPM_P1;HPM_P2
2023/03/23 00:01:02;;;;;;;5.03;2.10;;;;;;;10.67;100.00;100100.06;5027573;28;20029;-67
2023/03/23 00:03:31;;;;;;;3.10;2.08;;;;;;;10.71;100.00;100106.16;5028394;28;20029;-67
2023/03/23 00:06:04;;;;;;;3.97;2.45;;;;;;;10.74;100.00;100126.94;5046686;28;20466;-67
2023/03/23 00:08:31;;;;;;;3.70;2.63;;;;;;;10.74;100.00;100118.31;5031663;28;20268;-67
2023/03/23 00:10:58;;;;;;;4.00;2.58;;;;;;;10.76;100.00;100109.72;5035588;28;20021;-67
2023/03/23 00:13:24;;;;;;;4.47;2.22;;;;;;;10.76;100.00;100086.41;5046481;28;20647;-67
2023/03/23 00:15:51;;;;;;;5.32;2.70;;;;;;;10.77;100.00;100095.06;5046856;28;20027;-66
2023/03/23 00:18:21;;;;;;;3.45;2.15;;;;;;;10.79;100.00;100114.09;5034000;28;20017;-67
2023/03/23 00:20:49;;;;;;;5.20;3.05;;;;;;;10.84;100.00;100129.72;5036643;28;20025;-67
2023/03/23 00:23:19;;;;;;;4.18;2.85;;;;;;;10.84;100.00;100111.59;5027349;28;20021;-67
2023/03/23 00:25:50;;;;;;;3.40;2.42;;;;;;;10.84;100.00;100102.09;5027496;28;20079;-67
2023/03/23 00:28:16;;;;;;;4.70;3.33;;;;;;;10.85;100.00;100106.44;5027435;28;20021;-67
2023/03/23 00:30:42;;;;;;;2.75;2.40;;;;;;;10.87;100.00;100107.34;5027516;28;20060;-67
2023/03/23 00:33:08;;;;;;;3.15;2.13;;;;;;;10.90;100.00;100111.72;5027296;28;20087;-67
2023/03/23 00:35:35;;;;;;;3.65;2.45;;;;;;;10.91;100.00;100121.22;5027540;28;20045;-67
2023/03/23 00:38:01;;;;;;;2.88;2.42;;;;;;;10.89;100.00;100110.84;5043520;28;20389;-67
2023/03/23 00:40:27;;;;;;;5.15;2.50;;;;;;;10.89;100.00;100115.13;5031479;28;20076;-67
2023/03/23 00:42:52;;;;;;;4.28;2.70;;;;;;;10.90;100.00;100119.50;5031030;28;20029;-67
2023/03/23 00:45:18;;;;;;;6.55;2.60;;;;;;;10.90;100.00;100114.31;5030340;28;20063;-67
2023/03/23 00:47:46;;;;;;;4.03;2.50;;;;;;;10.87;100.00;100106.44;5049065;28;20082;-67
2023/03/23 00:50:13;;;;;;;4.45;2.83;;;;;;;10.86;100.00;100105.59;5050252;28;20237;-67
2023/03/23 00:52:40;;;;;;;3.72;2.63;;;;;;;10.86;100.00;100099.53;5050209;28;20476;-67
2023/03/23 00:55:06;;;;;;;3.65;2.83;;;;;;;10.90;100.00;100097.03;5049622;28;20488;-67
2023/03/23 00:57:31;;;;;;;3.80;2.67;;;;;;;10.91;100.00;100100.50;5049762;28;20020;-67
2023/03/23 00:59:57;;;;;;;4.13;2.60;;;;;;;10.92;100.00;100099.63;5049842;28;20092;-67
2023/03/23 01:02:24;;;;;;;3.67;2.53;;;;;;;10.92;100.00;100105.69;5049730;28;20025;-67
2023/03/23 01:04:52;;;;;;;4.40;3.20;;;;;;;10.94;100.00;100103.13;5050550;28;20044;-67
2023/03/23 01:07:20;;;;;;;4.55;3.22;;;;;;;10.92;100.00;100078.91;5050093;28;20035;-67
2023/03/23 01:09:47;;;;;;;4.13;2.40;;;;;;;10.91;100.00;100082.34;5050116;28;20033;-67
2023/03/23 01:12:14;;;;;;;3.15;2.88;;;;;;;10.92;100.00;100086.69;5048528;28;20021;-67
2023/03/23 01:14:40;;;;;;;5.68;3.25;;;;;;;10.91;100.00;100092.72;5048865;28;20082;-67
2023/03/23 01:17:05;;;;;;;5.43;2.63;;;;;;;10.87;100.00;100072.75;5049116;28;20556;-67
2023/03/23 01:19:30;;;;;;;3.72;3.13;;;;;;;10.85;100.00;100040.78;5049904;28;20025;-67
2023/03/23 01:21:56;;;;;;;3.13;2.75;;;;;;;10.85;100.00;100052.00;5048320;28;20083;-67
2023/03/23 01:24:21;;;;;;;3.65;3.10;;;;;;;10.86;100.00;100051.16;5047962;28;20055;-67
2023/03/23 01:26:47;;;;;;;3.70;2.90;;;;;;;10.85;100.00;100056.34;5048165;28;20044;-67
2023/03/23 01:29:13;;;;;;;4.85;3.45;;;;;;;10.88;100.00;100053.78;5047078;28;20505;-67
2023/03/23 01:31:39;;;;;;;4.50;2.65;;;;;;;10.90;100.00;100039.13;5048363;28;20131;-67
2023/03/23 01:34:05;;;;;;;5.53;3.05;;;;;;;10.89;100.00;100047.75;5047437;28;20112;-67
2023/03/23 01:36:32;;;;;;;3.88;3.13;;;;;;;10.89;100.00;100037.38;5048534;28;20394;-67
2023/03/23 01:38:58;;;;;;;3.63;2.55;;;;;;;10.90;100.00;100044.31;5047244;28;20602;-67
2023/03/23 01:41:24;;;;;;;2.95;2.72;;;;;;;10.92;100.00;100047.78;5049076;28;20021;-67
2023/03/23 01:43:55;;;;;;;3.53;2.78;;;;;;;10.95;100.00;100047.88;5049511;28;20020;-67
2023/03/23 01:46:22;;;;;;;4.40;2.58;;;;;;;11.00;100.00;100056.59;5048107;28;20385;-67
2023/03/23 01:48:49;;;;;;;3.65;3.17;;;;;;;11.01;100.00;100055.75;5047979;28;20029;-67
2023/03/23 01:51:18;;;;;;;4.10;3.00;;;;;;;11.03;100.00;100056.66;5036586;28;20597;-67
2023/03/23 01:53:55;;;;;;;4.13;3.13;;;;;;;11.04;100.00;100055.78;5029491;28;20497;-67
2023/03/23 01:56:27;;;;;;;2.83;2.58;;;;;;;11.05;100.00;100059.25;5038203;28;20077;-67
2023/03/23 01:58:53;;;;;;;;;;;;;;;11.04;100.00;100048.00;5049385;28;20025;-67
2023/03/23 02:01:21;;;;;;;4.75;2.95;;;;;;;11.08;100.00;100037.72;5048547;28;19912;-67
2023/03/23 02:03:48;;;;;;;3.05;2.75;;;;;;;11.08;100.00;100032.53;5045741;28;20504;-67
2023/03/23 02:06:14;;;;;;;4.93;3.05;;;;;;;11.11;100.00;100023.09;5029466;28;20079;-67
2023/03/23 02:08:43;;;;;;;3.80;2.92;;;;;;;11.15;100.00;100018.81;5033185;28;20025;-67
2023/03/23 02:11:18;;;;;;;6.53;3.35;;;;;;;11.16;100.00;100015.38;5038051;28;20025;-67
2023/03/23 02:13:45;;;;;;;4.07;2.65;;;;;;;11.13;100.00;100010.13;5041992;28;20059;-67
2023/03/23 02:16:16;;;;;;;4.00;2.83;;;;;;;11.11;100.00;100017.00;5029472;28;20022;-67
2023/03/23 02:18:58;;;;;;;4.35;2.97;;;;;;;11.16;100.00;99999.81;5029329;28;20093;-67
2023/03/23 02:21:53;;;;;;;3.72;2.90;;;;;;;11.22;100.00;100009.41;5029295;28;20033;-67
2023/03/23 02:24:41;;;;;;;4.53;2.97;;;;;;;11.21;100.00;100003.34;5029066;28;20497;-67
2023/03/23 02:27:13;;;;;;;3.72;2.75;;;;;;;11.21;100.00;100003.34;5029343;28;20033;-67
2023/03/23 02:29:47;;;;;;;3.90;3.10;;;;;;;11.21;100.00;100008.53;5042452;28;20025;-67
2023/03/23 02:32:31;;;;;;;3.65;2.67;;;;;;;11.20;100.00;100014.59;5029323;28;20036;-67
2023/03/23 02:35:11;;;;;;;3.92;2.53;;;;;;;11.22;100.00;100010.28;5028977;28;20356;-67
2023/03/23 02:37:45;;;;;;;4.65;2.60;;;;;;;11.22;100.00;99999.91;5044451;28;20021;-67
2023/03/23 02:40:22;;;;;;;5.22;2.67;;;;;;;11.20;100.00;99995.53;5048818;28;20028;-67
2023/03/23 02:42:51;;;;;;;3.03;2.42;;;;;;;11.19;100.00;99994.66;5041965;28;20095;-67
2023/03/23 02:45:20;;;;;;;3.92;2.80;;;;;;;11.17;100.00;99991.19;5041641;28;20025;-67
2023/03/23 02:47:48;;;;;;;3.55;2.13;;;;;;;11.17;100.00;99986.88;5037525;28;20033;-67
2023/03/23 02:50:16;;;;;;;8.75;3.25;;;;;;;11.21;100.00;99998.16;5042744;28;20033;-67
2023/03/23 02:52:44;;;;;;;4.72;2.60;;;;;;;11.22;100.00;99989.56;5047844;28;20060;-67
2023/03/23 02:55:11;;;;;;;5.68;2.70;;;;;;;11.24;100.00;99998.19;5039772;28;20253;-67
2023/03/23 02:57:37;;;;;;;3.55;2.60;;;;;;;11.25;100.00;100005.16;5041547;28;20075;-67
2023/03/23 03:00:06;;;;;;;2.80;2.50;;;;;;;11.25;100.00;100002.56;5027593;28;20087;-67
2023/03/23 03:02:36;;;;;;;2.40;2.20;;;;;;;11.27;100.00;99995.69;5035363;28;20037;-67
2023/03/23 03:05:12;;;;;;;5.57;2.45;;;;;;;11.29;100.00;99999.16;5047468;28;20055;-67
2023/03/23 03:07:56;;;;;;;4.28;2.53;;;;;;;11.27;100.00;99995.69;5028545;28;20061;-67
2023/03/23 03:10:35;;;;;;;3.70;2.72;;;;;;;11.27;100.00;99997.38;5028352;28;20056;-67
2023/03/23 03:13:11;;;;;;;3.50;2.67;;;;;;;11.26;100.00;99996.50;5040627;28;20021;-67
2023/03/23 03:15:41;;;;;;;3.67;2.65;;;;;;;11.26;100.00;100001.69;5035255;28;20020;-68
2023/03/23 03:18:31;;;;;;;3.50;2.42;;;;;;;11.25;100.00;100010.34;5047291;28;20083;-67
2023/03/23 03:21:04;;;;;;;3.80;2.67;;;;;;;11.24;100.00;99997.34;5047338;28;20541;-67
2023/03/23 03:23:32;;;;;;;4.03;2.88;;;;;;;11.26;100.00;99991.31;5037089;28;20220;-67
2023/03/23 03:25:59;;;;;;;3.72;2.80;;;;;;;11.32;100.00;100013.88;5027744;28;20018;-67
2023/03/23 03:28:26;;;;;;;2.67;2.47;;;;;;;11.34;100.00;100009.59;5027287;28;20360;-67
2023/03/23 03:30:56;;;;;;;3.50;2.28;;;;;;;11.34;100.00;100006.13;5040928;28;20489;-67
2023/03/23 03:33:25;;;;;;;2.75;2.25;;;;;;;11.31;100.00;99998.31;5041083;28;20029;-67
2023/03/23 03:35:52;;;;;;;3.78;2.53;;;;;;;11.31;100.00;100003.50;5047100;28;20082;-67
2023/03/23 03:38:18;;;;;;;3.45;2.35;;;;;;;11.31;100.00;100003.50;5034947;28;20029;-67
2023/03/23 03:40:43;;;;;;;2.63;2.40;;;;;;;11.28;100.00;100002.59;5028621;28;20414;-67
2023/03/23 03:43:08;;;;;;;5.55;2.65;;;;;;;11.28;100.00;100001.72;5027305;28;20083;-67
2023/03/23 03:45:33;;;;;;;2.53;2.20;;;;;;;11.26;100.00;100006.88;5029037;28;20029;-67
2023/03/23 03:48:00;;;;;;;4.28;2.20;;;;;;;11.25;100.00;100005.16;5029017;28;20036;-67
2023/03/23 03:50:26;;;;;;;6.40;2.35;;;;;;;11.28;100.00;100010.38;5029469;28;20029;-68
2023/03/23 03:52:52;;;;;;;3.45;2.10;;;;;;;11.30;100.00;100002.63;5028945;28;20053;-67
2023/03/23 03:55:17;;;;;;;4.22;2.45;;;;;;;11.34;100.00;99999.22;5035193;28;20485;-67
2023/03/23 03:57:43;;;;;;;4.63;2.13;;;;;;;11.32;100.00;100005.22;5047358;28;20032;-67
2023/03/23 04:00:14;;;;;;;3.40;1.88;;;;;;;11.33;100.00;100005.28;5033696;28;20021;-67
2023/03/23 04:02:47;;;;;;;3.53;2.60;;;;;;;11.31;100.00;100013.88;5027646;28;20090;-67
2023/03/23 04:05:13;;;;;;;4.65;2.03;;;;;;;11.32;100.00;100025.97;5030039;28;20029;-67
2023/03/23 04:07:39;;;;;;;3.67;1.75;;;;;;;11.35;100.00;100023.47;5047491;28;20557;-67
2023/03/23 04:10:08;;;;;;;4.65;2.05;;;;;;;11.34;100.00;100022.56;5031768;28;20029;-67
2023/03/23 04:12:34;;;;;;;4.22;1.95;;;;;;;11.34;100.00;100026.88;5038924;28;20071;-67
2023/03/23 04:15:00;;;;;;;6.97;2.53;;;;;;;11.34;100.00;100017.38;5035004;28;20021;-67
2023/03/23 04:17:28;;;;;;;4.65;2.00;;;;;;;11.33;100.00;100023.44;5041160;28;20040;-67
2023/03/23 04:19:57;;;;;;;4.28;1.88;;;;;;;11.34;100.00;100032.06;5036027;28;20476;-67
2023/03/23 04:22:29;;;;;;;5.07;2.05;;;;;;;11.31;100.00;100032.03;5031580;28;20056;-67
2023/03/23 04:24:58;;;;;;;2.83;1.75;;;;;;;11.31;100.00;100034.63;5032562;28;20021;-67
2023/03/23 04:27:24;;;;;;;3.72;1.50;;;;;;;11.27;100.00;100032.00;5043480;28;20020;-68
2023/03/23 04:29:50;;;;;;;5.70;1.38;;;;;;;11.30;100.00;100028.56;5032796;28;20026;-67
2023/03/23 04:32:17;;;;;;;4.95;1.52;;;;;;;11.28;100.00;100025.06;5032451;28;20389;-67
2023/03/23 04:34:43;;;;;;;4.70;1.73;;;;;;;11.32;100.00;100033.75;5031305;28;20106;-67
2023/03/23 04:37:09;;;;;;;5.05;1.25;;;;;;;11.33;100.00;100043.31;5030997;28;20021;-67
2023/03/23 04:39:35;;;;;;;3.67;1.63;;;;;;;11.34;100.00;100051.09;5031636;28;20029;-67
2023/03/23 04:42:01;;;;;;;4.40;1.30;;;;;;;11.33;100.00;100043.31;5031805;28;20033;-67
2023/03/23 04:44:27;;;;;;;4.53;1.50;;;;;;;11.34;100.00;100032.06;5031782;28;20614;-67
2023/03/23 04:46:53;;;;;;;6.97;2.15;;;;;;;11.35;100.00;100044.22;5031748;28;20025;-67
2023/03/23 04:49:21;;;;;;;3.40;1.20;;;;;;;11.38;100.00;100041.66;5043427;28;20108;-67
2023/03/23 04:51:46;;;;;;;6.80;1.70;;;;;;;11.39;100.00;100048.56;5044943;28;20025;-67
2023/03/23 04:54:12;;;;;;;6.80;2.45;;;;;;;11.37;100.00;100055.50;5030832;28;20526;-67
2023/03/23 04:56:38;;;;;;;5.22;1.38;;;;;;;11.35;100.00;100054.59;5047253;28;20024;-67
2023/03/23 04:59:03;;;;;;;3.70;1.75;;;;;;;11.31;100.00;100056.25;5050364;28;20020;-67
2023/03/23 05:01:29;;;;;;;4.47;1.67;;;;;;;11.31;100.00;100047.59;5050321;28;20413;-67
2023/03/23 05:03:54;;;;;;;4.90;1.92;;;;;;;11.33;100.00;100051.09;5044961;28;20060;-67
2023/03/23 05:06:20;;;;;;;4.50;1.50;;;;;;;11.34;100.00;100051.09;5030498;28;20427;-67
2023/03/23 05:08:45;;;;;;;6.18;1.17;;;;;;;11.33;100.00;100054.56;5030410;28;20030;-67
2023/03/23 05:11:10;;;;;;;4.75;1.30;;;;;;;11.33;100.00;100053.69;5028722;28;20036;-67
2023/03/23 05:13:36;;;;;;;4.22;1.40;;;;;;;11.31;100.00;100050.19;5030143;28;20857;-67
2023/03/23 05:16:05;;;;;;;5.53;1.88;;;;;;;11.32;100.00;100051.91;5030584;28;20370;-67
2023/03/23 05:18:31;;;;;;;8.00;1.65;;;;;;;11.32;100.00;100044.13;5030670;28;20104;-67
2023/03/23 05:21:00;;;;;;;5.35;1.75;;;;;;;11.34;100.00;100051.09;5029853;28;20029;-67
2023/03/23 05:23:25;;;;;;;3.60;1.60;;;;;;;11.34;100.00;100050.22;5029547;28;20013;-66
2023/03/23 05:25:55;;;;;;;5.38;1.52;;;;;;;11.34;100.00;100050.22;5030438;28;20066;-67
2023/03/23 05:28:21;;;;;;;3.42;1.35;;;;;;;11.33;100.00;100048.50;5029889;28;20171;-67
2023/03/23 05:30:47;;;;;;;9.15;2.03;;;;;;;11.32;100.00;100047.63;5056924;28;20030;-67
2023/03/23 05:33:13;;;;;;;6.63;1.60;;;;;;;11.32;100.00;100059.69;5049538;28;20082;-67
2023/03/23 05:35:38;;;;;;;6.57;1.63;;;;;;;11.29;100.00;100068.31;5035033;28;20188;-67
2023/03/23 05:38:04;;;;;;;6.45;2.00;;;;;;;11.26;100.00;100063.94;5028420;28;20355;-67
2023/03/23 05:40:30;;;;;;;4.35;1.42;;;;;;;11.23;100.00;100060.41;5041723;28;20100;-67
2023/03/23 05:42:57;;;;;;;7.68;1.80;;;;;;;11.18;100.00;100055.16;5031010;28;20112;-67
2023/03/23 05:45:22;;;;;;;6.40;1.65;;;;;;;11.17;100.00;100058.63;5032299;28;20477;-67
2023/03/23 05:47:48;;;;;;;5.75;1.58;;;;;;;11.11;100.00;100056.78;5028829;28;20025;-67
2023/03/23 05:50:13;;;;;;;4.60;2.00;;;;;;;11.07;100.00;100061.88;5036139;28;20095;-67
2023/03/23 05:52:39;;;;;;;4.30;1.95;;;;;;;11.02;100.00;100060.09;5032274;28;20087;-67
2023/03/23 05:55:06;;;;;;;5.15;1.40;;;;;;;10.99;100.00;100059.16;5033906;28;20021;-67
2023/03/23 05:57:31;;;;;;;7.18;1.50;;;;;;;10.96;100.00;100059.97;5029320;28;20021;-67
2023/03/23 05:59:57;;;;;;;6.88;2.25;;;;;;;10.93;100.00;100042.66;5029335;28;20051;-67
2023/03/23 06:02:23;;;;;;;5.40;2.10;;;;;;;10.93;100.00;100052.16;5048030;28;20029;-67
2023/03/23 06:04:49;;;;;;;3.28;1.63;;;;;;;10.90;100.00;100065.06;5044886;28;20275;-67
2023/03/23 06:07:15;;;;;;;4.57;1.80;;;;;;;10.89;100.00;100059.00;5032285;28;20473;-67
2023/03/23 06:09:41;;;;;;;4.85;1.48;;;;;;;10.90;100.00;100054.69;5029112;28;20021;-67
2023/03/23 06:12:07;;;;;;;8.38;2.08;;;;;;;10.89;100.00;100058.13;5034420;28;20473;-67
2023/03/23 06:14:33;;;;;;;9.50;2.38;;;;;;;10.87;100.00;100060.69;5036625;28;20025;-67
2023/03/23 06:16:58;;;;;;;5.80;2.00;;;;;;;10.88;100.00;100066.75;5033142;28;20337;-67
2023/03/23 06:19:26;;;;;;;5.53;1.80;;;;;;;10.89;100.00;100084.03;5030832;28;20513;-67
2023/03/23 06:21:52;;;;;;;6.20;1.92;;;;;;;10.88;100.00;100087.47;5032983;28;20025;-67
2023/03/23 06:24:17;;;;;;;4.63;1.95;;;;;;;10.88;100.00;100083.16;5030721;28;20044;-67
2023/03/23 06:26:43;;;;;;;6.30;1.65;;;;;;;10.91;100.00;100092.72;5030114;28;20505;-67
2023/03/23 06:29:12;;;;;;;4.68;2.05;;;;;;;10.91;100.00;100106.56;5030566;28;20033;-67
2023/03/23 06:31:44;;;;;;;5.47;1.88;;;;;;;10.95;100.00;100102.31;5040600;28;20447;-67
2023/03/23 06:34:11;;;;;;;8.00;1.80;;;;;;;10.98;100.00;100104.06;5036137;28;20033;-67
2023/03/23 06:36:38;;;;;;;5.40;1.85;;;;;;;10.99;100.00;100122.25;5035132;28;20541;-67
2023/03/23 06:39:06;;;;;;;6.85;2.15;;;;;;;11.03;100.00;100121.47;5033986;28;20029;-67
2023/03/23 06:41:32;;;;;;;7.05;1.88;;;;;;;11.05;100.00;100117.19;5033498;28;20087;-67
2023/03/23 06:43:58;;;;;;;6.53;1.30;;;;;;;11.08;100.00;100118.09;5036236;28;20470;-67
2023/03/23 06:46:24;;;;;;;7.75;2.33;;;;;;;11.07;100.00;100124.09;5035487;28;20033;-67
2023/03/23 06:48:50;;;;;;;6.60;1.73;;;;;;;11.07;100.00;100126.69;5035335;28;20040;-67
2023/03/23 06:51:16;;;;;;;8.98;1.80;;;;;;;11.08;100.00;100126.72;5038901;28;20013;-67
2023/03/23 06:53:42;;;;;;;8.40;1.75;;;;;;;11.08;100.00;100129.31;5054792;28;20409;-67
2023/03/23 06:56:07;;;;;;;4.63;1.88;;;;;;;11.09;100.00;100128.47;5040490;28;20033;-67
2023/03/23 06:58:33;;;;;;;8.25;1.88;;;;;;;11.09;100.00;100131.06;5040237;28;20044;-67
2023/03/23 07:00:59;;;;;;;5.18;1.20;;;;;;;11.07;100.00;100137.94;5039023;28;20489;-67
2023/03/23 07:03:25;;;;;;;7.40;1.98;;;;;;;11.07;100.00;100155.22;5053543;28;20028;-67
2023/03/23 07:05:51;;;;;;;7.05;1.65;;;;;;;11.06;100.00;100154.38;5045791;28;20032;-67
2023/03/23 07:08:16;;;;;;;7.57;1.50;;;;;;;11.03;100.00;100142.19;5044773;28;20025;-67
2023/03/23 07:10:41;;;;;;;4.10;1.17;;;;;;;11.00;100.00;100151.63;5033273;28;20026;-67
2023/03/23 07:13:07;;;;;;;8.10;1.90;;;;;;;10.95;100.00;100146.38;5038211;28;20032;-67
2023/03/23 07:15:32;;;;;;;5.18;1.63;;;;;;;10.88;100.00;100157.47;5040803;28;20382;-66
2023/03/23 07:17:58;;;;;;;7.75;2.10;;;;;;;10.77;100.00;100160.72;5037429;28;20451;-67
2023/03/23 07:20:23;;;;;;;7.32;1.67;;;;;;;10.66;100.00;100165.69;5049718;28;20013;-66
2023/03/23 07:22:49;;;;;;;9.43;1.92;;;;;;;10.53;100.00;100168.84;5047558;28;20168;-66
2023/03/23 07:25:15;;;;;;;6.40;1.70;;;;;;;10.45;100.00;100181.63;5043501;28;20044;-66
2023/03/23 07:27:41;;;;;;;4.40;1.67;;;;;;;10.39;100.00;100184.94;5049262;28;20017;-66
2023/03/23 07:30:07;;;;;;;5.35;2.28;;;;;;;10.32;100.00;100181.34;5050347;28;20040;-66
2023/03/23 07:32:32;;;;;;;3.85;1.95;;;;;;;10.28;100.00;100174.34;5049838;28;20032;-67
2023/03/23 07:34:58;;;;;;;5.78;2.00;;;;;;;10.21;100.00;100199.22;5052669;28;20141;-67
2023/03/23 07:37:24;;;;;;;7.30;1.60;;;;;;;10.18;100.00;100203.44;5043044;28;20298;-67
2023/03/23 07:39:49;;;;;;;6.15;1.73;;;;;;;10.18;100.00;100200.88;5045838;28;20025;-67
2023/03/23 07:42:14;;;;;;;6.35;1.50;;;;;;;10.15;100.00;100208.53;5029078;28;20033;-67
2023/03/23 07:44:40;;;;;;;3.28;1.13;;;;;;;10.04;100.00;100201.38;5037175;28;20032;-68
2023/03/23 07:47:05;;;;;;;2.15;0.90;;;;;;;9.95;100.00;100191.69;5033196;28;20025;-67
2023/03/23 07:49:31;;;;;;;1.88;0.90;;;;;;;9.87;100.00;100179.41;5027096;28;20025;-67
2023/03/23 07:51:57;;;;;;;2.47;0.90;;;;;;;9.76;100.00;100174.84;5026822;28;20072;-67
2023/03/23 07:54:22;;;;;;;2.38;0.75;;;;;;;9.67;100.00;100187.56;5045203;28;20084;-68
2023/03/23 07:56:48;;;;;;;1.27;0.50;;;;;;;9.57;100.00;100189.91;5041409;28;20025;-67
2023/03/23 07:59:13;;;;;;;3.63;0.77;;;;;;;9.54;100.00;100189.81;5044046;28;20024;-67
2023/03/23 08:01:39;;;;;;;2.63;0.93;;;;;;;9.45;100.00;100203.41;5039401;28;20025;-67
2023/03/23 08:04:05;;;;;;;2.90;0.80;;;;;;;9.41;100.00;100206.72;5037818;28;20082;-67
2023/03/23 08:06:33;;;;;;;2.72;1.00;;;;;;;9.41;100.00;100211.03;5031675;28;20032;-67
2023/03/23 08:08:59;;;;;;;3.40;1.17;;;;;;;9.37;100.00;100221.28;5030470;28;20500;-66
2023/03/23 08:11:25;;;;;;;3.92;1.30;;;;;;;9.35;100.00;100210.00;5038629;28;20063;-67
2023/03/23 08:13:51;;;;;;;2.20;0.90;;;;;;;9.31;100.00;100218.53;5033754;28;20065;-67
2023/03/23 08:16:16;;;;;;;4.47;1.05;;;;;;;9.26;100.00;100235.66;5025995;28;20037;-67
2023/03/23 08:18:42;;;;;;;3.20;0.70;;;;;;;9.26;100.00;100230.47;5031806;28;20128;-67
2023/03/23 08:21:10;;;;;;;2.45;0.77;;;;;;;9.23;100.00;100240.72;5045768;28;20021;-67
2023/03/23 08:23:36;;;;;;;3.67;1.30;;;;;;;9.21;100.00;100232.91;5040562;28;20063;-67
2023/03/23 08:26:04;;;;;;;2.70;1.02;;;;;;;9.18;100.00;100237.13;5051344;28;20033;-67
2023/03/23 08:28:30;;;;;;;4.57;1.00;;;;;;;9.16;100.00;100243.94;5044402;28;20025;-67
2023/03/23 08:30:55;;;;;;;2.63;0.73;;;;;;;9.16;100.00;100233.59;5031074;28;20038;-67
2023/03/23 08:33:21;;;;;;;11.35;1.80;;;;;;;9.09;100.00;100233.44;5035652;28;20061;-66
2023/03/23 08:35:56;;;;;;;3.60;0.65;;;;;;;9.10;100.00;100230.03;5035215;28;20099;-66
2023/03/23 08:38:22;;;;;;;2.95;0.90;;;;;;;9.07;100.00;100221.31;5035426;28;20060;-66
2023/03/23 08:40:48;;;;;;;2.05;0.52;;;;;;;9.07;100.00;100229.94;5035484;28;20025;-67
2023/03/23 08:43:13;;;;;;;1.75;0.70;;;;;;;9.06;100.00;100223.03;5046101;28;20041;-66
2023/03/23 08:45:39;;;;;;;1.95;0.60;;;;;;;9.09;100.00;100227.41;5048507;28;20032;-66
2023/03/23 08:48:04;;;;;;;2.70;0.93;;;;;;;9.08;100.00;100241.16;5052613;28;20024;-66
2023/03/23 08:50:30;;;;;;;2.13;0.95;;;;;;;9.13;100.00;100234.41;5044519;28;20492;-66
2023/03/23 08:52:56;;;;;;;2.95;0.80;;;;;;;9.16;100.00;100233.59;5038779;28;20068;-66
2023/03/23 08:55:22;;;;;;;5.28;1.58;;;;;;;9.17;100.00;100232.78;5038961;28;20025;-66
2023/03/23 08:57:47;;;;;;;2.58;1.23;;;;;;;9.16;100.00;100239.66;5027615;28;20036;-66
2023/03/23 09:00:19;;;;;;;2.58;0.70;;;;;;;9.19;100.00;100239.75;5037463;28;20021;-66
2023/03/23 09:02:49;;;;;;;3.47;1.02;;;;;;;9.21;100.00;100247.56;5046333;28;20025;-66
2023/03/23 09:05:16;;;;;;;3.72;1.10;;;;;;;9.23;100.00;100241.59;5049440;28;20021;-67
2023/03/23 09:07:46;;;;;;;3.65;0.90;;;;;;;9.28;100.00;100252.09;5038034;28;20025;-66
2023/03/23 09:10:12;;;;;;;3.22;0.90;;;;;;;9.26;100.00;100248.56;5035871;28;20033;-66
2023/03/23 09:12:39;;;;;;;5.45;1.08;;;;;;;9.26;100.00;100230.47;5032998;28;20030;-66
2023/03/23 09:15:07;;;;;;;6.63;1.52;;;;;;;9.33;100.00;100228.94;5034387;28;20043;-66
2023/03/23 09:17:38;;;;;;;2.20;0.82;;;;;;;9.61;100.00;100227.94;5032694;28;20091;-66
2023/03/23 09:20:11;;;;;;;3.20;1.02;;;;;;;9.81;100.00;100237.94;5039174;28;20036;-66
2023/03/23 09:22:38;;;;;;;5.07;1.27;;;;;;;9.84;100.00;100245.78;5041897;28;20112;-66
2023/03/23 09:25:04;;;;;;;5.72;2.30;;;;;;;9.93;100.00;100249.44;5036924;28;20018;-66
2023/03/23 09:27:29;;;;;;;4.35;1.02;;;;;;;9.93;100.00;100249.44;5032474;28;20482;-67
2023/03/23 09:29:55;;;;;;;4.75;1.10;;;;;;;9.84;100.00;100256.13;5037410;28;20036;-66
2023/03/23 09:32:22;;;;;;;6.05;1.00;;;;;;;9.75;100.00;100244.69;5031575;28;20033;-66
2023/03/23 09:34:47;;;;;;;4.30;1.33;;;;;;;9.68;100.00;100243.63;5036942;28;20463;-66
2023/03/23 09:37:14;;;;;;;2.97;0.90;;;;;;;9.66;100.00;100240.16;5037995;28;20048;-66
2023/03/23 09:39:39;;;;;;;3.40;0.80;;;;;;;9.63;100.00;100240.91;5040364;28;20358;-66
2023/03/23 09:42:07;;;;;;;2.83;0.80;;;;;;;9.63;100.00;100247.78;5048809;28;20021;-66
2023/03/23 09:44:55;;;;;;;3.17;0.80;;;;;;;9.63;100.00;100255.56;5053964;28;20503;-67
2023/03/23 09:47:49;;;;;;;1.50;0.77;;;;;;;9.75;100.00;100250.72;5045093;28;20024;-66
2023/03/23 09:50:21;;;;;;;1.38;0.63;;;;;;;9.90;100.00;100255.41;5043997;28;20018;-66
2023/03/23 09:53:01;;;;;;;4.30;1.45;;;;;;;10.08;100.00;100252.41;5054710;28;20455;-66
2023/03/23 09:55:28;;;;;;;3.08;0.98;;;;;;;10.23;100.00;100251.03;5052146;28;20079;-66
2023/03/23 09:58:09;;;;;;;6.38;0.80;;;;;;;10.42;100.00;100252.34;5047308;28;20028;-66
2023/03/23 10:00:39;;;;;;;2.78;0.80;;;;;;;10.68;100.00;100253.81;5040972;28;20017;-66
2023/03/23 10:03:17;;;;;;;2.28;0.70;;;;;;;10.96;100.00;100256.09;5040060;28;20021;-66
2023/03/23 10:05:47;;;;;;;2.30;0.70;;;;;;;11.18;100.00;100252.25;5038151;28;20029;-67
2023/03/23 10:08:18;;;;;;;4.38;1.08;;;;;;;11.35;100.00;100255.16;5040837;28;20037;-67
2023/03/23 10:10:52;;;;;;;;;;;;;;;11.50;100.00;100254.59;5042471;28;20460;-68
2023/03/23 10:13:42;;;;;;;3.30;0.80;;;;;;;11.58;100.00;100251.28;5051680;28;20297;-66
2023/03/23 10:16:19;;;;;;;4.57;0.80;;;;;;;11.69;100.00;100264.44;5045607;28;20037;-67
2023/03/23 10:19:07;;;;;;;3.03;0.80;;;;;;;11.88;100.00;100273.44;5033535;28;20022;-67
2023/03/23 10:21:37;;;;;;;2.63;1.17;;;;;;;11.94;100.00;100260.56;5034750;28;20079;-66
2023/03/23 10:24:08;;;;;;;3.50;0.90;;;;;;;12.05;100.00;100270.25;5033069;28;20402;-67
2023/03/23 10:26:42;;;;;;;;;;;;;;;12.12;100.00;100274.75;5045870;28;20017;-67
2023/03/23 10:29:17;;;;;;;2.72;0.85;;;;;;;12.32;100.00;100271.59;5039982;28;20007;-67
2023/03/23 10:31:47;;;;;;;2.15;1.10;;;;;;;12.48;100.00;100283.94;5064761;28;20351;-67
2023/03/23 10:34:16;;;;;;;3.70;1.17;;;;;;;12.32;100.00;100287.19;5060932;28;20021;-67
2023/03/23 10:36:51;;;;;;;4.32;1.13;;;;;;;12.41;100.00;100292.50;5064257;28;20032;-67
2023/03/23 10:39:21;;;;;;;4.20;1.30;;;;;;;12.44;100.00;100289.97;5056352;28;20485;-67
2023/03/23 10:41:47;;;;;;;4.25;1.30;;;;;;;12.55;100.00;100291.84;5029863;28;20025;-67
2023/03/23 10:44:21;;;;;;;3.30;1.33;;;;;;;12.56;100.00;100298.78;5029357;28;20029;-68
2023/03/23 10:46:55;;;;;;;5.65;1.67;;;;;;;12.48;100.00;100286.56;5037099;28;20032;-67
2023/03/23 10:49:25;;;;;;;3.53;1.58;;;;;;;12.44;100.00;100284.78;5037046;28;20021;-68
2023/03/23 10:52:04;;;;;;;3.55;1.92;;;;;;;12.48;100.00;100283.94;5037532;28;20025;-67
2023/03/23 10:54:46;;;;;;;4.05;1.60;;;;;;;12.59;100.00;100281.50;5042345;28;20413;-68
2023/03/23 10:57:39;;;;;;;4.85;1.30;;;;;;;12.66;100.00;100277.31;5032381;28;20025;-67
2023/03/23 11:00:08;;;;;;;4.25;1.10;;;;;;;12.68;100.00;100291.16;5029448;28;20041;-67
2023/03/23 11:02:58;;;;;;;3.10;1.20;;;;;;;12.69;100.00;100282.53;5027868;28;20381;-68
2023/03/23 11:05:27;;;;;;;2.53;1.40;;;;;;;12.67;100.00;100279.03;5028305;28;20472;-66
2023/03/23 11:07:55;;;;;;;5.68;1.75;;;;;;;12.76;100.00;100287.81;5027639;28;20075;-67
2023/03/23 11:10:36;;;;;;;3.35;1.05;;;;;;;12.69;100.00;100271.25;5027016;28;20030;-67
2023/03/23 11:13:04;;;;;;;4.80;1.50;;;;;;;12.67;100.00;100278.16;5027768;28;20091;-67
2023/03/23 11:15:36;;;;;;;5.00;1.17;;;;;;;12.77;100.00;100271.38;5033683;28;20024;-67
2023/03/23 11:18:04;;;;;;;3.33;1.55;;;;;;;12.88;100.00;100259.38;5035338;28;20026;-67
2023/03/23 11:20:35;;;;;;;6.43;1.75;;;;;;;13.00;100.00;100282.09;5029537;28;20170;-66
2023/03/23 11:23:07;;;;;;;10.02;2.08;;;;;;;13.14;100.00;100273.56;5031597;28;20052;-69
2023/03/23 11:25:33;;;;;;;3.13;1.50;;;;;;;13.23;100.00;100278.91;5038679;28;20029;-67